Time;durP1;ratioP1;P1;durP2;ratioP2;P2;SDS_P1;SDS_P2;PMS_P1;PMS_P2;Temp;Humidity;BMP_temperature;BMP_pressure;BME280_temperature;BME280_humidity;BME280_pressure;Samples;Min_cycle;Max_cycle;Signal;HPM_P1;HPM_P2
2022/10/14 00:01:05;;;;;;;8.20;2.80;;;11.30;99.90;;;;;;4836351;29;20050;-51
2022/10/14 00:03:33;;;;;;;6.60;2.58;;;11.30;99.90;;;;;;4842559;29;20057;-50
2022/10/14 00:06:04;;;;;;;4.72;2.83;;;11.30;99.90;;;;;;4838777;29;20046;-52
2022/10/14 00:08:31;;;;;;;6.07;2.60;;;11.30;99.90;;;;;;4837273;29;20626;-52
2022/10/14 00:11:02;;;;;;;;;;;11.30;99.90;;;;;;4839177;29;20046;-52
2022/10/14 00:13:30;;;;;;;11.50;3.67;;;11.30;99.90;;;;;;4835900;29;20607;-50
2022/10/14 00:15:57;;;;;;;5.18;2.60;;;11.20;99.90;;;;;;4841480;29;20054;-50
2022/10/14 00:18:26;;;;;;;6.82;3.25;;;11.30;99.90;;;;;;4837143;29;20140;-54
2022/10/14 00:20:56;;;;;;;;;;;11.20;99.90;;;;;;4843147;29;20442;-50
2022/10/14 00:23:23;;;;;;;5.75;2.80;;;11.20;99.90;;;;;;4835057;29;20407;-52
2022/10/14 00:25:51;;;;;;;3.53;2.95;;;11.20;99.90;;;;;;4833644;29;20057;-54
2022/10/14 00:28:18;;;;;;;8.85;3.13;;;11.20;99.90;;;;;;4838893;29;20053;-51
2022/10/14 00:30:59;;;;;;;10.07;2.88;;;11.20;99.90;;;;;;4839955;29;20042;-51
2022/10/14 00:33:27;;;;;;;9.23;2.78;;;11.20;99.90;;;;;;4835093;29;20049;-51
2022/10/14 00:36:02;;;;;;;5.10;2.63;;;11.20;99.90;;;;;;4837445;29;20085;-50
2022/10/14 00:38:35;;;;;;;7.03;2.40;;;11.20;99.90;;;;;;4837660;29;20061;-53
2022/10/14 00:41:02;;;;;;;5.15;3.08;;;11.20;99.90;;;;;;4839116;29;20656;-50
2022/10/14 00:43:49;;;;;;;6.88;2.92;;;11.20;99.90;;;;;;4830907;29;20484;-53
2022/10/14 00:46:15;;;;;;;5.82;3.33;;;11.20;99.90;;;;;;4837050;29;20053;-51
2022/10/14 00:48:43;;;;;;;4.47;2.83;;;11.20;99.90;;;;;;4829141;29;21045;-53
2022/10/14 00:51:11;;;;;;;4.32;2.45;;;11.20;99.90;;;;;;4835695;29;20037;-54
2022/10/14 00:53:41;;;;;;;5.55;2.22;;;11.30;99.90;;;;;;4837155;29;20636;-52
2022/10/14 00:56:13;;;;;;;3.13;2.83;;;11.30;99.90;;;;;;4832891;29;20454;-52
2022/10/14 00:58:40;;;;;;;5.25;2.20;;;11.30;99.90;;;;;;4836983;29;20453;-49
2022/10/14 01:01:07;;;;;;;7.25;2.80;;;11.30;99.90;;;;;;4835073;29;20585;-54
2022/10/14 01:03:34;;;;;;;5.47;2.47;;;11.40;99.90;;;;;;4841026;29;20077;-52
2022/10/14 01:06:38;;;;;;;2.90;2.10;;;11.40;99.90;;;;;;4838769;29;20144;-51
2022/10/14 01:09:23;;;;;;;3.40;2.28;;;11.30;99.90;;;;;;4838158;29;20057;-53
2022/10/14 01:12:08;;;;;;;6.70;2.60;;;11.40;99.90;;;;;;4844524;29;20052;-55
2022/10/14 01:15:10;;;;;;;5.78;2.35;;;11.40;99.90;;;;;;4833856;29;20489;-53
2022/10/14 01:17:52;;;;;;;5.10;2.55;;;11.30;99.90;;;;;;4831817;29;20591;-51
2022/10/14 01:20:35;;;;;;;5.60;2.47;;;11.30;99.90;;;;;;4833849;29;20152;-54
2022/10/14 01:23:39;;;;;;;3.08;2.53;;;11.30;99.90;;;;;;4834981;29;20052;-53
2022/10/14 01:26:15;;;;;;;3.10;2.45;;;11.30;99.90;;;;;;4834646;29;20041;-50
2022/10/14 01:29:10;;;;;;;7.47;2.75;;;11.20;99.90;;;;;;4832787;29;20056;-55
2022/10/14 01:31:43;;;;;;;5.30;2.40;;;11.20;99.90;;;;;;4834604;29;20077;-55
2022/10/14 01:34:14;;;;;;;12.77;3.00;;;11.20;99.90;;;;;;4834677;29;20051;-53
2022/10/14 01:36:50;;;;;;;4.25;2.63;;;11.20;99.90;;;;;;4838253;29;20053;-53
2022/10/14 01:39:26;;;;;;;3.78;2.20;;;11.20;99.90;;;;;;4838552;29;20464;-52
2022/10/14 01:42:11;;;;;;;4.00;2.25;;;11.20;99.90;;;;;;4837825;29;20060;-51
2022/10/14 01:44:42;;;;;;;4.53;2.75;;;11.20;99.90;;;;;;4839267;29;20058;-52
2022/10/14 01:47:14;;;;;;;3.00;2.30;;;11.20;99.90;;;;;;4835347;29;20408;-53
2022/10/14 01:49:50;;;;;;;4.35;2.10;;;11.20;99.90;;;;;;4837774;29;20504;-52
2022/10/14 01:52:26;;;;;;;5.93;2.75;;;11.20;99.90;;;;;;4837094;29;20530;-50
2022/10/14 01:54:57;;;;;;;5.10;2.53;;;11.20;99.90;;;;;;4838772;29;20413;-53
2022/10/14 01:57:29;;;;;;;2.92;2.63;;;11.20;99.90;;;;;;4823230;29;20068;-50
2022/10/14 01:59:58;;;;;;;3.88;2.03;;;11.20;99.90;;;;;;4820569;29;20068;-54
2022/10/14 02:02:25;;;;;;;7.78;2.42;;;11.20;99.90;;;;;;4836698;29;20468;-54
2022/10/14 02:04:52;;;;;;;3.30;2.53;;;11.20;99.90;;;;;;4837962;29;20580;-53
2022/10/14 02:07:28;;;;;;;15.85;2.70;;;11.20;99.90;;;;;;4840180;29;20050;-53
2022/10/14 02:10:12;;;;;;;4.18;2.55;;;11.20;99.90;;;;;;4843970;29;20077;-53
2022/10/14 02:13:24;;;;;;;3.75;2.00;;;11.20;99.90;;;;;;4835715;29;20387;-54
2022/10/14 02:16:11;;;;;;;2.95;2.38;;;11.20;99.90;;;;;;4829815;29;20139;-54
2022/10/14 02:18:48;;;;;;;4.50;2.95;;;11.20;99.90;;;;;;4839958;29;20056;-54
2022/10/14 02:21:35;;;;;;;8.30;2.20;;;11.20;99.90;;;;;;4836872;29;20364;-52
2022/10/14 02:24:23;;;;;;;2.78;2.47;;;11.20;99.90;;;;;;4831415;29;20180;-52
2022/10/14 02:26:54;;;;;;;4.68;2.60;;;11.20;99.90;;;;;;4834404;29;20045;-51
2022/10/14 02:29:23;;;;;;;2.92;2.60;;;11.20;99.90;;;;;;4832330;29;20073;-54
2022/10/14 02:31:53;;;;;;;9.68;2.50;;;11.20;99.90;;;;;;4836023;29;20049;-51
2022/10/14 02:34:23;;;;;;;3.83;2.42;;;11.20;99.90;;;;;;4836538;29;20065;-51
2022/10/14 02:36:52;;;;;;;3.58;2.35;;;11.20;99.90;;;;;;4836265;29;20109;-51
2022/10/14 02:39:26;;;;;;;6.65;2.30;;;11.20;99.90;;;;;;4835151;29;20152;-54
2022/10/14 02:41:53;;;;;;;4.78;1.98;;;11.20;99.90;;;;;;4835917;29;20526;-53
2022/10/14 02:44:20;;;;;;;6.75;2.58;;;11.20;99.90;;;;;;4837673;29;20059;-53
2022/10/14 02:46:47;;;;;;;7.40;2.53;;;11.10;99.90;;;;;;4835801;29;20233;-54
2022/10/14 02:49:15;;;;;;;5.43;2.75;;;11.10;99.90;;;;;;4837619;29;20038;-53
2022/10/14 02:51:43;;;;;;;6.13;2.33;;;11.10;99.90;;;;;;4836745;29;20097;-53
2022/10/14 02:54:10;;;;;;;3.58;2.17;;;11.10;99.90;;;;;;4831404;29;20328;-54
2022/10/14 02:56:37;;;;;;;4.53;2.30;;;11.10;99.90;;;;;;4815245;29;20066;-53
2022/10/14 02:59:04;;;;;;;;;;;11.10;99.90;;;;;;4834667;29;20045;-50
2022/10/14 03:01:32;;;;;;;2.58;2.35;;;11.10;99.90;;;;;;4821085;29;20119;-52
2022/10/14 03:04:04;;;;;;;8.60;2.65;;;11.10;99.90;;;;;;4841879;29;20061;-50
2022/10/14 03:06:31;;;;;;;6.75;2.40;;;11.10;99.90;;;;;;4835308;29;20045;-52
2022/10/14 03:08:59;;;;;;;4.93;1.90;;;11.10;99.90;;;;;;4838159;29;20045;-53
2022/10/14 03:11:26;;;;;;;4.18;2.47;;;11.00;99.90;;;;;;4843468;29;20049;-55
2022/10/14 03:13:59;;;;;;;5.55;2.95;;;11.00;99.90;;;;;;4833270;29;20328;-50
2022/10/14 03:16:26;;;;;;;4.75;2.40;;;11.10;99.90;;;;;;4835379;29;20524;-52
2022/10/14 03:18:53;;;;;;;5.18;2.92;;;11.10;99.90;;;;;;4835742;29;20324;-53
2022/10/14 03:21:33;;;;;;;5.28;1.83;;;11.10;99.90;;;;;;4829242;29;20056;-51
2022/10/14 03:24:00;;;;;;;;;;;11.00;99.90;;;;;;4837634;29;20732;-51
2022/10/14 03:26:32;;;;;;;5.20;2.38;;;11.00;99.90;;;;;;4833910;29;21000;-53
2022/10/14 03:28:58;;;;;;;3.30;2.42;;;11.00;99.90;;;;;;4831834;29;20516;-54
2022/10/14 03:31:38;;;;;;;4.07;2.38;;;11.00;99.90;;;;;;4833528;29;20591;-53
2022/10/14 03:34:21;;;;;;;5.43;2.55;;;11.10;99.90;;;;;;4832920;29;20260;-54
2022/10/14 03:36:56;;;;;;;3.90;2.35;;;11.10;99.90;;;;;;4828880;29;20046;-53
2022/10/14 03:39:25;;;;;;;3.80;2.00;;;11.10;99.90;;;;;;4832432;29;20050;-52
2022/10/14 03:41:52;;;;;;;2.55;2.00;;;11.00;99.90;;;;;;4833888;29;20782;-52
2022/10/14 03:44:30;;;;;;;4.10;2.17;;;11.00;99.90;;;;;;4831469;29;20350;-53
2022/10/14 03:47:35;;;;;;;8.88;2.65;;;11.10;99.90;;;;;;4832100;29;20176;-53
2022/10/14 03:50:04;;;;;;;3.15;2.30;;;11.00;99.90;;;;;;4832722;29;20054;-53
2022/10/14 03:52:43;;;;;;;3.05;2.33;;;11.00;99.90;;;;;;4823569;29;20053;-53
2022/10/14 03:55:24;;;;;;;3.53;1.80;;;11.00;99.90;;;;;;4836489;29;20197;-55
2022/10/14 03:57:52;;;;;;;8.35;2.75;;;11.00;99.90;;;;;;4834967;29;20873;-55
2022/10/14 04:00:19;;;;;;;4.03;2.20;;;11.00;99.90;;;;;;4834858;29;20057;-51
2022/10/14 04:02:54;;;;;;;4.22;2.50;;;11.00;99.90;;;;;;4832014;29;20779;-51
2022/10/14 04:05:33;;;;;;;3.55;2.50;;;11.00;99.90;;;;;;4837570;29;20584;-53
2022/10/14 04:08:06;;;;;;;4.72;1.80;;;11.00;99.90;;;;;;4836895;29;20409;-50
2022/10/14 04:10:35;;;;;;;3.92;1.95;;;11.00;99.90;;;;;;4847349;29;20404;-53
2022/10/14 04:13:02;;;;;;;3.60;2.10;;;11.00;99.90;;;;;;4871992;29;20605;-53
2022/10/14 04:15:36;;;;;;;5.18;1.90;;;11.00;99.90;;;;;;4861979;29;20069;-54
2022/10/14 04:18:09;;;;;;;3.35;2.00;;;11.00;99.90;;;;;;4857862;29;20060;-55
2022/10/14 04:20:38;;;;;;;3.63;2.08;;;11.00;99.90;;;;;;4868293;29;20052;-51
2022/10/14 04:23:07;;;;;;;5.60;2.70;;;11.00;99.90;;;;;;4853271;29;20052;-54
2022/10/14 04:25:38;;;;;;;7.30;2.58;;;11.00;99.90;;;;;;4851862;29;20064;-54
2022/10/14 04:28:05;;;;;;;8.52;2.60;;;10.90;99.90;;;;;;4853892;29;20129;-51
2022/10/14 04:30:55;;;;;;;4.53;2.72;;;10.90;99.90;;;;;;4868826;29;20164;-55
2022/10/14 04:33:27;;;;;;;4.13;2.50;;;10.90;99.90;;;;;;4866673;29;20731;-52
2022/10/14 04:35:58;;;;;;;3.55;2.47;;;10.90;99.90;;;;;;4866785;29;20100;-52
2022/10/14 04:38:32;;;;;;;7.50;2.45;;;10.90;99.90;;;;;;4856466;29;20536;-52
2022/10/14 04:41:03;;;;;;;8.00;3.40;;;10.80;99.90;;;;;;4860384;29;20268;-53
2022/10/14 04:43:30;;;;;;;10.43;3.05;;;10.80;99.90;;;;;;4872578;29;20140;-54
2022/10/14 04:46:08;;;;;;;12.98;2.67;;;10.80;99.90;;;;;;4875529;29;20116;-52
2022/10/14 04:48:35;;;;;;;;;;;10.80;99.90;;;;;;4862575;29;20389;-52
2022/10/14 04:51:03;;;;;;;6.10;2.70;;;10.80;99.90;;;;;;4871488;29;19928;-52
2022/10/14 04:53:43;;;;;;;4.05;2.25;;;10.80;99.90;;;;;;4880025;29;20144;-50
2022/10/14 04:56:26;;;;;;;3.08;2.25;;;10.80;99.90;;;;;;4872608;29;20548;-53
2022/10/14 04:58:58;;;;;;;5.70;3.20;;;10.80;99.90;;;;;;4860444;29;20274;-53
2022/10/14 05:01:45;;;;;;;3.10;2.67;;;10.80;99.90;;;;;;4876740;29;20493;-54
2022/10/14 05:04:13;;;;;;;4.32;2.15;;;10.80;99.90;;;;;;4856136;29;20056;-54
2022/10/14 05:06:41;;;;;;;6.07;2.47;;;10.80;99.90;;;;;;4875027;29;20069;-54
2022/10/14 05:09:11;;;;;;;8.52;3.67;;;10.80;99.90;;;;;;4873736;29;20618;-51
2022/10/14 05:11:38;;;;;;;;;;;10.80;99.90;;;;;;4875995;29;20102;-53
2022/10/14 05:14:05;;;;;;;8.52;2.97;;;10.70;99.90;;;;;;4879442;29;20401;-51
2022/10/14 05:16:33;;;;;;;4.63;2.63;;;10.70;99.90;;;;;;4873670;29;20144;-53
2022/10/14 05:19:01;;;;;;;9.10;2.72;;;10.70;99.90;;;;;;4858656;29;20600;-58
2022/10/14 05:21:29;;;;;;;4.78;2.60;;;10.70;99.90;;;;;;4858803;29;20706;-51
2022/10/14 05:24:19;;;;;;;2.97;2.00;;;10.70;99.90;;;;;;4859784;29;20104;-54
2022/10/14 05:26:47;;;;;;;5.55;3.10;;;10.80;99.90;;;;;;4870373;29;20361;-49
2022/10/14 05:29:14;;;;;;;6.95;2.60;;;10.80;99.90;;;;;;4872195;29;20366;-53
2022/10/14 05:31:41;;;;;;;5.20;2.80;;;10.80;99.90;;;;;;4858484;29;20045;-53
2022/10/14 05:34:32;;;;;;;4.25;2.30;;;10.90;99.90;;;;;;4867281;29;20643;-54
2022/10/14 05:37:01;;;;;;;7.65;2.78;;;10.90;99.90;;;;;;4860032;29;20718;-53
2022/10/14 05:39:34;;;;;;;4.40;3.17;;;10.90;99.90;;;;;;4859360;29;20399;-54
2022/10/14 05:42:00;;;;;;;3.42;2.47;;;10.90;99.90;;;;;;4874178;29;20870;-55
2022/10/14 05:44:28;;;;;;;4.20;2.47;;;10.90;99.90;;;;;;4857212;29;20049;-53
2022/10/14 05:46:56;;;;;;;8.73;2.65;;;10.90;99.90;;;;;;4879673;29;20056;-52
2022/10/14 05:49:25;;;;;;;2.90;2.58;;;10.90;99.90;;;;;;4871661;29;20237;-51
2022/10/14 05:51:54;;;;;;;5.20;3.05;;;10.90;99.90;;;;;;4871129;29;20113;-51
2022/10/14 05:54:22;;;;;;;7.05;3.25;;;10.90;99.90;;;;;;4868086;29;20049;-52
2022/10/14 05:56:52;;;;;;;3.55;2.35;;;10.90;99.90;;;;;;4850913;29;20096;-51
2022/10/14 05:59:19;;;;;;;5.78;2.40;;;10.90;99.90;;;;;;4870439;29;20570;-50
2022/10/14 06:01:45;;;;;;;;;;;10.90;99.90;;;;;;4871840;29;20397;-53
2022/10/14 06:04:20;;;;;;;5.40;2.60;;;10.90;99.90;;;;;;4854019;29;19984;-52
2022/10/14 06:06:46;;;;;;;6.05;2.83;;;10.90;99.90;;;;;;4856016;29;20124;-53
2022/10/14 06:09:15;;;;;;;3.65;2.33;;;11.00;99.90;;;;;;4869858;29;20076;-52
2022/10/14 06:11:42;;;;;;;4.70;2.78;;;11.00;99.90;;;;;;4871859;29;20490;-51
2022/10/14 06:14:09;;;;;;;7.28;3.00;;;11.00;99.90;;;;;;4871448;29;20049;-52
2022/10/14 06:16:36;;;;;;;6.20;2.65;;;11.00;99.90;;;;;;4870668;29;20052;-53
2022/10/14 06:19:05;;;;;;;4.57;2.75;;;11.10;99.90;;;;;;4872249;29;20069;-53
2022/10/14 06:21:31;;;;;;;5.57;2.20;;;11.10;99.90;;;;;;4859644;29;20100;-52
2022/10/14 06:23:58;;;;;;;4.60;2.53;;;11.10;99.90;;;;;;4860083;29;20185;-49
2022/10/14 06:26:25;;;;;;;;;;;11.20;99.90;;;;;;4857334;29;20497;-52
2022/10/14 06:28:52;;;;;;;7.00;2.92;;;11.20;99.90;;;;;;4856702;29;20466;-48
2022/10/14 06:31:19;;;;;;;;;;;11.30;99.90;;;;;;4852868;29;20219;-52
2022/10/14 06:33:46;;;;;;;4.95;2.38;;;11.30;99.90;;;;;;4855327;29;20010;-52
2022/10/14 06:36:13;;;;;;;3.30;2.50;;;11.30;99.90;;;;;;4868677;29;20139;-52
2022/10/14 06:38:39;;;;;;;;;;;11.40;99.90;;;;;;4853229;29;20049;-52
2022/10/14 06:41:06;;;;;;;5.22;2.67;;;11.40;99.90;;;;;;4857504;29;19924;-53
2022/10/14 06:43:34;;;;;;;6.35;2.53;;;11.50;99.90;;;;;;4868406;29;20346;-53
2022/10/14 06:46:02;;;;;;;5.10;2.25;;;11.50;99.90;;;;;;4856327;29;20296;-51
2022/10/14 06:48:29;;;;;;;3.95;2.40;;;11.50;99.90;;;;;;4854129;29;20052;-54
2022/10/14 06:50:58;;;;;;;7.00;2.95;;;11.60;99.90;;;;;;4855942;29;20044;-54
2022/10/14 06:53:26;;;;;;;8.75;3.05;;;11.60;99.90;;;;;;4859819;29;20052;-55
2022/10/14 06:55:57;;;;;;;9.82;3.30;;;11.70;99.90;;;;;;4858926;29;20048;-54
2022/10/14 06:58:24;;;;;;;2.78;2.58;;;11.70;99.90;;;;;;4863602;29;20083;-53
2022/10/14 07:00:51;;;;;;;8.05;3.38;;;11.70;99.90;;;;;;4859902;29;20045;-55
2022/10/14 07:03:17;;;;;;;13.80;3.00;;;11.70;99.90;;;;;;4867952;29;20315;-54
2022/10/14 07:05:44;;;;;;;4.68;2.80;;;11.80;99.90;;;;;;4853277;29;20083;-54
2022/10/14 07:08:11;;;;;;;;;;;11.80;99.90;;;;;;4853563;29;20135;-52
2022/10/14 07:10:41;;;;;;;4.38;2.53;;;11.80;99.90;;;;;;4855396;29;19928;-53
2022/10/14 07:13:08;;;;;;;;;;;11.90;99.90;;;;;;4858299;29;20057;-54
2022/10/14 07:15:36;;;;;;;6.38;3.05;;;11.90;99.90;;;;;;4859361;29;20588;-54
2022/10/14 07:18:05;;;;;;;2.95;2.53;;;12.00;99.90;;;;;;4857958;29;20049;-55
2022/10/14 07:20:33;;;;;;;9.52;2.90;;;12.00;99.90;;;;;;4859995;29;20148;-54
2022/10/14 07:23:00;;;;;;;13.60;3.15;;;12.10;99.90;;;;;;4859590;29;20053;-54
2022/10/14 07:25:26;;;;;;;;;;;12.10;99.90;;;;;;4856331;29;20122;-54
2022/10/14 07:27:53;;;;;;;3.72;2.88;;;12.10;99.90;;;;;;4858931;29;19928;-56
2022/10/14 07:30:20;;;;;;;8.75;2.75;;;12.10;99.90;;;;;;4855810;29;20576;-53
2022/10/14 07:32:47;;;;;;;;;;;12.10;99.90;;;;;;4853944;29;20049;-54
2022/10/14 07:35:14;;;;;;;8.07;2.75;;;12.00;99.90;;;;;;4871405;29;20476;-52
2022/10/14 07:37:41;;;;;;;6.38;2.63;;;12.00;99.90;;;;;;4855498;29;20076;-54
2022/10/14 07:40:08;;;;;;;12.32;2.80;;;12.00;99.90;;;;;;4853995;29;20053;-53
2022/10/14 07:42:36;;;;;;;3.67;2.47;;;12.10;99.90;;;;;;4858735;29;20037;-53
2022/10/14 07:45:04;;;;;;;2.85;2.05;;;12.20;99.90;;;;;;4860500;29;20057;-56
2022/10/14 07:47:32;;;;;;;3.83;2.67;;;12.20;99.90;;;;;;4855304;29;20051;-55
2022/10/14 07:50:00;;;;;;;4.20;2.45;;;12.30;99.90;;;;;;4854754;29;20165;-52
2022/10/14 07:52:27;;;;;;;3.53;2.55;;;12.40;99.90;;;;;;4854930;29;20061;-54
2022/10/14 07:54:54;;;;;;;4.28;2.60;;;12.40;99.90;;;;;;4856896;29;20505;-56
2022/10/14 07:57:22;;;;;;;3.65;2.72;;;12.50;99.90;;;;;;4860238;29;20340;-55
2022/10/14 07:59:51;;;;;;;3.38;2.33;;;12.50;99.90;;;;;;4862159;29;20468;-53
2022/10/14 08:02:18;;;;;;;3.05;2.50;;;12.60;99.90;;;;;;4861030;29;20145;-55
2022/10/14 08:04:45;;;;;;;3.38;2.72;;;12.60;99.90;;;;;;4861702;29;20369;-53
2022/10/14 08:07:13;;;;;;;6.63;2.67;;;12.60;99.90;;;;;;4860956;29;20322;-57
2022/10/14 08:09:40;;;;;;;3.75;2.88;;;12.70;99.90;;;;;;4863332;29;20049;-56
2022/10/14 08:12:07;;;;;;;9.10;2.45;;;12.70;99.90;;;;;;4859117;29;20049;-56
2022/10/14 08:14:34;;;;;;;;;;;12.70;99.90;;;;;;4860930;29;20202;-53
2022/10/14 08:17:01;;;;;;;9.88;2.70;;;12.70;99.90;;;;;;4878044;29;19931;-55
2022/10/14 08:19:27;;;;;;;2.75;2.05;;;12.70;99.90;;;;;;4861774;29;20602;-54
2022/10/14 08:21:54;;;;;;;5.72;2.83;;;12.70;99.90;;;;;;4859440;29;20169;-54
2022/10/14 08:24:21;;;;;;;3.20;2.08;;;12.70;99.90;;;;;;4856867;29;20552;-54
2022/10/14 08:26:49;;;;;;;;;;;12.70;99.90;;;;;;4863428;29;20273;-53
2022/10/14 08:29:16;;;;;;;7.20;2.88;;;12.80;99.90;;;;;;4860606;29;19938;-54
2022/10/14 08:31:43;;;;;;;;;;;12.80;99.90;;;;;;4863584;29;20056;-55
2022/10/14 08:34:10;;;;;;;2.72;2.42;;;12.80;99.90;;;;;;4860424;29;20353;-54
2022/10/14 08:36:37;;;;;;;5.53;2.17;;;12.80;99.90;;;;;;4858231;29;20133;-55
2022/10/14 08:39:04;;;;;;;4.32;2.08;;;12.80;99.90;;;;;;4855698;29;20922;-53
2022/10/14 08:41:43;;;;;;;7.05;3.03;;;12.80;99.90;;;;;;4860073;29;20163;-54
2022/10/14 08:44:18;;;;;;;7.55;2.92;;;12.80;99.90;;;;;;4861425;29;20057;-55
2022/10/14 08:46:51;;;;;;;3.80;2.28;;;12.90;99.90;;;;;;4858831;29;20543;-54
2022/10/14 08:49:44;;;;;;;2.45;2.25;;;12.90;99.90;;;;;;4873835;29;20460;-52
2022/10/14 08:52:37;;;;;;;5.82;2.42;;;12.90;99.90;;;;;;4857833;29;20064;-52
2022/10/14 08:55:20;;;;;;;3.60;2.20;;;12.90;99.90;;;;;;4872689;29;20062;-52
2022/10/14 08:57:52;;;;;;;4.60;2.30;;;13.00;99.90;;;;;;4862862;29;20044;-54
2022/10/14 09:00:20;;;;;;;12.55;2.58;;;13.00;99.90;;;;;;4858108;29;20049;-51
2022/10/14 09:02:50;;;;;;;6.28;3.47;;;13.00;99.90;;;;;;4863697;29;20057;-54
2022/10/14 09:05:23;;;;;;;5.40;2.83;;;13.00;99.90;;;;;;4860231;29;20056;-54
2022/10/14 09:07:54;;;;;;;3.85;2.20;;;13.00;99.90;;;;;;4857448;29;20552;-50
2022/10/14 09:10:41;;;;;;;2.53;1.90;;;13.00;99.90;;;;;;4857619;29;20219;-57
2022/10/14 09:13:42;;;;;;;4.72;2.50;;;13.10;99.90;;;;;;4864268;29;20504;-52
2022/10/14 09:16:17;;;;;;;3.80;2.33;;;13.10;99.90;;;;;;4837733;29;20065;-51
2022/10/14 09:18:56;;;;;;;7.28;2.78;;;13.10;99.90;;;;;;4867694;29;20586;-50
2022/10/14 09:21:36;;;;;;;6.57;2.78;;;13.10;99.90;;;;;;4861830;29;20092;-49
2022/10/14 09:24:27;;;;;;;3.00;2.28;;;13.20;99.90;;;;;;4863157;29;20504;-49
2022/10/14 09:27:01;;;;;;;6.40;2.43;;;13.20;99.90;;;;;;4854107;29;20048;-53
2022/10/14 09:29:49;;;;;;;5.35;2.53;;;13.10;99.90;;;;;;4855073;29;20391;-51
2022/10/14 09:32:26;;;;;;;9.00;2.60;;;13.10;99.90;;;;;;4864116;29;20067;-54
2022/10/14 09:34:53;;;;;;;;;;;13.10;99.90;;;;;;4858561;29;20412;-51
2022/10/14 09:37:27;;;;;;;3.63;2.13;;;13.10;99.90;;;;;;4866996;29;19939;-53
2022/10/14 09:40:02;;;;;;;6.55;2.63;;;13.00;99.90;;;;;;4861666;29;20354;-52
2022/10/14 09:42:54;;;;;;;4.50;2.70;;;13.00;99.90;;;;;;4864022;29;20045;-48
2022/10/14 09:45:23;;;;;;;5.15;2.70;;;13.00;99.90;;;;;;4872855;29;20052;-50
2022/10/14 09:48:06;;;;;;;4.93;2.25;;;13.00;99.90;;;;;;4856093;29;20041;-51
2022/10/14 09:50:42;;;;;;;7.78;2.78;;;13.00;99.90;;;;;;4857416;29;20551;-55
2022/10/14 09:53:35;;;;;;;5.63;2.60;;;13.10;99.90;;;;;;4862508;29;20045;-53
2022/10/14 09:56:05;;;;;;;3.05;2.40;;;13.10;99.90;;;;;;4857708;29;20185;-55
2022/10/14 09:58:42;;;;;;;4.10;2.40;;;13.10;99.90;;;;;;4856476;29;20064;-53
2022/10/14 10:01:18;;;;;;;3.50;2.75;;;13.20;99.90;;;;;;4861521;29;20060;-53
2022/10/14 10:03:46;;;;;;;2.33;2.13;;;13.20;99.90;;;;;;4863346;29;20112;-52
2022/10/14 10:06:20;;;;;;;8.63;2.80;;;13.30;99.90;;;;;;4857440;29;20136;-53
2022/10/14 10:08:53;;;;;;;6.15;2.85;;;13.30;99.90;;;;;;4858286;29;20164;-52
2022/10/14 10:11:36;;;;;;;3.17;2.58;;;13.30;99.90;;;;;;4856311;29;20055;-54
2022/10/14 10:14:31;;;;;;;6.32;3.47;;;13.40;99.90;;;;;;4855828;29;20096;-53
2022/10/14 10:17:08;;;;;;;4.43;2.85;;;13.50;99.90;;;;;;4857123;29;20049;-52
2022/10/14 10:19:38;;;;;;;4.45;2.92;;;13.50;99.90;;;;;;4856847;29;20146;-53
2022/10/14 10:22:26;;;;;;;2.85;2.30;;;13.50;99.90;;;;;;4853827;29;20049;-53
2022/10/14 10:25:02;;;;;;;;;;;13.60;99.90;;;;;;4857791;29;20128;-53
2022/10/14 10:27:35;;;;;;;5.25;3.28;;;13.60;99.90;;;;;;4856374;29;20180;-53
2022/10/14 10:30:17;;;;;;;6.97;3.08;;;13.70;99.90;;;;;;4860742;29;20383;-52
2022/10/14 10:33:03;;;;;;;3.55;2.70;;;13.70;99.90;;;;;;4860177;29;20116;-52
2022/10/14 10:35:42;;;;;;;6.95;3.20;;;13.70;99.90;;;;;;4857815;29;20049;-52
2022/10/14 10:38:14;;;;;;;4.43;3.28;;;13.80;99.90;;;;;;4863630;29;20056;-55
2022/10/14 10:41:06;;;;;;;7.20;4.53;;;13.80;99.90;;;;;;4869956;29;20111;-54
2022/10/14 10:43:58;;;;;;;12.93;4.00;;;13.90;99.90;;;;;;4850386;29;20049;-51
2022/10/14 10:46:36;;;;;;;6.95;3.10;;;14.00;99.90;;;;;;4857612;29;20047;-54
2022/10/14 10:49:40;;;;;;;9.95;3.50;;;14.10;99.90;;;;;;4855592;29;20085;-54
2022/10/14 10:52:27;;;;;;;6.78;3.53;;;14.20;99.90;;;;;;4851962;29;20481;-52
2022/10/14 10:55:12;;;;;;;5.00;3.80;;;14.30;99.90;;;;;;4858183;29;20041;-54
2022/10/14 10:58:05;;;;;;;8.30;3.78;;;14.60;99.90;;;;;;4849952;29;20053;-53
2022/10/14 11:01:00;;;;;;;7.50;3.35;;;14.80;99.90;;;;;;4852049;29;20053;-52
2022/10/14 11:03:48;;;;;;;9.00;4.13;;;15.00;99.90;;;;;;4864314;29;20061;-51
2022/10/14 11:12:41;;;;;;;6.70;3.88;;;15.80;99.90;;;;;;4850632;29;20042;-51
2022/10/14 11:15:28;;;;;;;5.15;3.55;;;16.00;99.90;;;;;;4848628;29;20117;-55
2022/10/14 11:18:07;;;;;;;6.40;3.13;;;16.20;99.90;;;;;;4852217;29;20072;-53
2022/10/14 11:20:42;;;;;;;5.07;3.22;;;16.30;99.90;;;;;;4857722;29;20731;-60
2022/10/14 11:23:27;;;;;;;6.20;3.53;;;16.40;99.90;;;;;;4852930;29;20046;-56
2022/10/14 11:25:59;;;;;;;4.63;2.88;;;16.60;99.90;;;;;;4851049;29;20116;-53
2022/10/14 11:29:03;;;;;;;6.43;3.03;;;16.70;99.90;;;;;;4856935;29;20053;-54
2022/10/14 11:31:50;;;;;;;5.43;3.03;;;16.80;99.90;;;;;;4865349;29;20117;-52
2022/10/14 11:34:27;;;;;;;7.38;2.65;;;16.90;99.90;;;;;;4856499;29;20060;-54
2022/10/14 11:37:40;;;;;;;6.88;2.13;;;16.90;99.90;;;;;;4854453;29;20053;-52
2022/10/14 11:40:23;;;;;;;5.85;1.98;;;17.00;99.90;;;;;;4837613;29;20734;-53
2022/10/14 11:43:21;;;;;;;3.70;2.00;;;16.90;99.90;;;;;;4848777;29;20085;-55
2022/10/14 11:46:11;;;;;;;2.28;1.92;;;17.00;99.90;;;;;;4851149;29;20253;-53
2022/10/14 11:48:56;;;;;;;3.58;2.35;;;16.90;99.90;;;;;;4852213;29;20258;-54
2022/10/14 11:51:27;;;;;;;3.15;2.10;;;16.90;99.90;;;;;;4851717;29;20156;-54
2022/10/14 11:54:16;;;;;;;6.50;2.05;;;17.00;99.90;;;;;;4859281;29;20093;-55
2022/10/14 11:56:56;;;;;;;3.50;2.03;;;17.00;99.90;;;;;;4852248;29;20119;-52
2022/10/14 12:02:52;;;;;;;6.20;2.65;;;17.10;99.90;;;;;;4845835;29;20061;-55
2022/10/14 12:05:35;;;;;;;3.28;2.33;;;17.10;99.90;;;;;;4851484;29;20124;-55
2022/10/14 12:08:40;;;;;;;6.88;2.80;;;17.10;99.90;;;;;;4855390;29;20049;-55
2022/10/14 12:11:14;;;;;;;3.70;2.08;;;17.10;99.90;;;;;;4855200;29;20045;-55
2022/10/14 12:13:48;;;;;;;2.53;1.92;;;17.10;99.90;;;;;;4856202;29;20556;-57
2022/10/14 12:16:21;;;;;;;5.13;1.70;;;17.10;99.90;;;;;;4857638;29;20041;-54
2022/10/14 12:18:52;;;;;;;6.95;2.65;;;17.10;99.90;;;;;;4857980;29;20476;-54
2022/10/14 12:21:51;;;;;;;4.63;2.00;;;17.10;99.90;;;;;;4860830;29;20060;-55
2022/10/14 12:24:25;;;;;;;4.63;1.98;;;17.10;99.90;;;;;;4853695;29;20053;-54
2022/10/14 12:26:55;;;;;;;4.53;2.03;;;17.00;99.90;;;;;;4852682;29;20038;-53
2022/10/14 12:29:27;;;;;;;2.33;1.85;;;16.90;99.90;;;;;;4859100;29;20140;-50
2022/10/14 12:32:03;;;;;;;5.70;2.33;;;16.90;99.90;;;;;;4856196;29;20037;-55
2022/10/14 12:34:38;;;;;;;5.18;4.10;;;16.80;99.90;;;;;;4849536;29;20753;-54
2022/10/14 12:37:28;;;;;;;4.85;2.20;;;16.70;99.90;;;;;;4856908;29;20056;-53
2022/10/14 12:40:05;;;;;;;6.75;2.70;;;16.60;99.90;;;;;;4852125;29;20152;-51
2022/10/14 12:42:56;;;;;;;7.38;2.58;;;16.60;99.90;;;;;;4866668;29;20432;-52
2022/10/14 12:45:28;;;;;;;3.78;2.67;;;16.50;99.90;;;;;;4847297;29;20067;-50
2022/10/14 12:48:04;;;;;;;6.38;3.10;;;16.40;99.90;;;;;;4849457;29;20139;-53
2022/10/14 12:50:35;;;;;;;7.38;3.58;;;16.20;99.90;;;;;;4854876;29;20045;-53
2022/10/14 12:53:07;;;;;;;7.80;3.38;;;16.10;99.90;;;;;;4850547;29;20065;-53
2022/10/14 12:55:47;;;;;;;5.82;2.92;;;16.00;99.90;;;;;;4847106;29;20298;-54
2022/10/14 12:58:40;;;;;;;6.72;4.10;;;15.90;99.90;;;;;;4853155;29;20052;-53
2022/10/14 13:01:20;;;;;;;12.35;5.40;;;15.80;99.90;;;;;;4855472;29;20443;-52
2022/10/14 13:03:58;;;;;;;8.02;5.45;;;15.70;99.90;;;;;;4855660;29;20052;-53
2022/10/14 13:06:27;;;;;;;6.18;3.50;;;15.50;99.90;;;;;;4861702;29;20041;-52
2022/10/14 13:09:12;;;;;;;6.10;3.55;;;15.40;99.90;;;;;;4853838;29;20058;-52
2022/10/14 13:11:40;;;;;;;4.32;3.38;;;15.40;99.90;;;;;;4859496;29;20152;-54
2022/10/14 13:14:26;;;;;;;4.97;3.85;;;15.40;99.90;;;;;;4851990;29;20049;-56
2022/10/14 13:16:56;;;;;;;4.38;3.47;;;15.30;99.90;;;;;;4850024;29;20059;-59
2022/10/14 13:19:32;;;;;;;5.40;3.45;;;15.30;99.90;;;;;;4855371;29;20477;-55
2022/10/14 13:22:27;;;;;;;7.63;3.28;;;15.30;99.90;;;;;;4853713;29;20352;-50
2022/10/14 13:25:20;;;;;;;6.93;5.50;;;15.30;99.90;;;;;;4856110;29;20063;-53
2022/10/14 13:28:03;;;;;;;10.65;6.65;;;15.30;99.90;;;;;;4855612;29;20342;-58
2022/10/14 13:30:54;;;;;;;5.43;4.65;;;15.30;99.90;;;;;;4850452;29;20045;-50
2022/10/14 13:33:32;;;;;;;11.50;6.78;;;15.30;99.90;;;;;;4856242;29;20854;-54
2022/10/14 13:36:21;;;;;;;7.35;6.20;;;15.30;99.90;;;;;;4854123;29;20047;-52
2022/10/14 13:38:56;;;;;;;16.88;6.88;;;15.40;99.90;;;;;;4855085;29;20052;-52